sensor_id;sensor_type;location;lat;lon;timestamp;P1;durP1;ratioP1;P2;durP2;ratioP2
11893;SDS011;6006;49.696;8.662;2023-05-07T00:00:34;2.50;;;2.10;;
11893;SDS011;6006;49.696;8.662;2023-05-07T00:03:01;2.07;;;1.97;;
11893;SDS011;6006;49.696;8.662;2023-05-07T00:05:30;2.03;;;1.93;;
11893;SDS011;6006;49.696;8.662;2023-05-07T00:07:56;2.00;;;1.87;;
11893;SDS011;6006;49.696;8.662;2023-05-07T00:10:23;1.90;;;1.80;;
11893;SDS011;6006;49.696;8.662;2023-05-07T00:12:50;2.80;;;2.03;;
11893;SDS011;6006;49.696;8.662;2023-05-07T00:15:17;2.60;;;1.97;;
11893;SDS011;6006;49.696;8.662;2023-05-07T00:17:44;3.43;;;2.27;;
11893;SDS011;6006;49.696;8.662;2023-05-07T00:20:11;2.00;;;1.90;;
11893;SDS011;6006;49.696;8.662;2023-05-07T00:22:39;3.10;;;2.30;;
11893;SDS011;6006;49.696;8.662;2023-05-07T00:25:07;2.60;;;2.40;;
11893;SDS011;6006;49.696;8.662;2023-05-07T00:27:35;2.67;;;2.10;;
11893;SDS011;6006;49.696;8.662;2023-05-07T00:30:02;2.07;;;1.87;;
11893;SDS011;6006;49.696;8.662;2023-05-07T00:32:29;1.87;;;1.77;;
11893;SDS011;6006;49.696;8.662;2023-05-07T00:34:56;1.80;;;1.70;;
11893;SDS011;6006;49.696;8.662;2023-05-07T00:37:22;2.50;;;1.83;;
11893;SDS011;6006;49.696;8.662;2023-05-07T00:39:51;2.30;;;1.80;;
11893;SDS011;6006;49.696;8.662;2023-05-07T00:42:17;2.17;;;2.07;;
11893;SDS011;6006;49.696;8.662;2023-05-07T00:44:44;2.40;;;2.17;;
11893;SDS011;6006;49.696;8.662;2023-05-07T00:47:11;2.30;;;2.10;;
11893;SDS011;6006;49.696;8.662;2023-05-07T00:49:39;2.10;;;2.00;;
11893;SDS011;6006;49.696;8.662;2023-05-07T00:52:09;1.97;;;1.67;;
11893;SDS011;6006;49.696;8.662;2023-05-07T00:54:37;3.47;;;2.07;;
11893;SDS011;6006;49.696;8.662;2023-05-07T00:57:06;2.00;;;1.73;;
11893;SDS011;6006;49.696;8.662;2023-05-07T00:59:32;5.43;;;2.07;;
11893;SDS011;6006;49.696;8.662;2023-05-07T01:02:00;2.57;;;2.20;;
11893;SDS011;6006;49.696;8.662;2023-05-07T01:04:26;2.20;;;2.00;;
11893;SDS011;6006;49.696;8.662;2023-05-07T01:06:53;2.63;;;2.00;;
11893;SDS011;6006;49.696;8.662;2023-05-07T01:09:22;1.83;;;1.73;;
11893;SDS011;6006;49.696;8.662;2023-05-07T01:11:50;2.00;;;1.90;;
11893;SDS011;6006;49.696;8.662;2023-05-07T01:14:19;1.90;;;1.80;;
11893;SDS011;6006;49.696;8.662;2023-05-07T01:16:46;2.00;;;1.90;;
11893;SDS011;6006;49.696;8.662;2023-05-07T01:19:13;2.33;;;2.00;;
11893;SDS011;6006;49.696;8.662;2023-05-07T01:21:43;1.80;;;1.70;;
11893;SDS011;6006;49.696;8.662;2023-05-07T01:24:14;2.80;;;1.93;;
11893;SDS011;6006;49.696;8.662;2023-05-07T01:26:41;2.00;;;1.90;;
11893;SDS011;6006;49.696;8.662;2023-05-07T01:29:09;2.13;;;1.90;;
11893;SDS011;6006;49.696;8.662;2023-05-07T01:31:36;2.50;;;2.20;;
11893;SDS011;6006;49.696;8.662;2023-05-07T01:34:04;2.50;;;2.23;;
11893;SDS011;6006;49.696;8.662;2023-05-07T01:36:34;2.43;;;2.23;;
11893;SDS011;6006;49.696;8.662;2023-05-07T01:39:03;1.97;;;1.87;;
11893;SDS011;6006;49.696;8.662;2023-05-07T01:41:32;2.00;;;1.90;;
11893;SDS011;6006;49.696;8.662;2023-05-07T01:44:00;2.60;;;2.13;;
11893;SDS011;6006;49.696;8.662;2023-05-07T01:46:27;4.20;;;1.93;;
11893;SDS011;6006;49.696;8.662;2023-05-07T01:48:54;2.27;;;2.03;;
11893;SDS011;6006;49.696;8.662;2023-05-07T01:51:21;3.63;;;2.07;;
11893;SDS011;6006;49.696;8.662;2023-05-07T01:53:48;1.87;;;1.77;;
11893;SDS011;6006;49.696;8.662;2023-05-07T01:56:16;2.03;;;1.83;;
11893;SDS011;6006;49.696;8.662;2023-05-07T01:58:45;2.20;;;2.03;;
11893;SDS011;6006;49.696;8.662;2023-05-07T02:01:12;5.00;;;2.03;;
11893;SDS011;6006;49.696;8.662;2023-05-07T02:03:39;2.00;;;1.90;;
11893;SDS011;6006;49.696;8.662;2023-05-07T02:06:06;2.63;;;1.80;;
11893;SDS011;6006;49.696;8.662;2023-05-07T02:08:33;3.00;;;1.97;;
11893;SDS011;6006;49.696;8.662;2023-05-07T02:11:00;2.30;;;2.10;;
11893;SDS011;6006;49.696;8.662;2023-05-07T02:13:28;2.47;;;2.27;;
11893;SDS011;6006;49.696;8.662;2023-05-07T02:15:57;2.30;;;2.10;;
11893;SDS011;6006;49.696;8.662;2023-05-07T02:18:24;3.40;;;2.20;;
11893;SDS011;6006;49.696;8.662;2023-05-07T02:20:51;2.17;;;2.07;;
11893;SDS011;6006;49.696;8.662;2023-05-07T02:23:18;2.60;;;1.83;;
11893;SDS011;6006;49.696;8.662;2023-05-07T02:25:45;2.07;;;1.80;;
11893;SDS011;6006;49.696;8.662;2023-05-07T02:28:12;4.70;;;2.30;;
11893;SDS011;6006;49.696;8.662;2023-05-07T02:30:39;3.60;;;2.20;;
11893;SDS011;6006;49.696;8.662;2023-05-07T02:33:07;2.60;;;2.03;;
11893;SDS011;6006;49.696;8.662;2023-05-07T02:35:34;4.00;;;2.10;;
11893;SDS011;6006;49.696;8.662;2023-05-07T02:38:01;2.10;;;2.00;;
11893;SDS011;6006;49.696;8.662;2023-05-07T02:40:28;2.37;;;2.00;;
11893;SDS011;6006;49.696;8.662;2023-05-07T02:42:58;2.40;;;1.90;;
11893;SDS011;6006;49.696;8.662;2023-05-07T02:45:25;3.60;;;1.90;;
11893;SDS011;6006;49.696;8.662;2023-05-07T02:47:52;3.20;;;1.73;;
11893;SDS011;6006;49.696;8.662;2023-05-07T02:50:21;1.80;;;1.70;;
11893;SDS011;6006;49.696;8.662;2023-05-07T02:52:48;3.77;;;2.07;;
11893;SDS011;6006;49.696;8.662;2023-05-07T02:55:15;2.00;;;1.70;;
11893;SDS011;6006;49.696;8.662;2023-05-07T02:57:42;2.07;;;1.97;;
11893;SDS011;6006;49.696;8.662;2023-05-07T03:00:13;2.70;;;1.77;;
11893;SDS011;6006;49.696;8.662;2023-05-07T03:02:41;2.17;;;1.80;;
11893;SDS011;6006;49.696;8.662;2023-05-07T03:05:08;2.13;;;1.93;;
11893;SDS011;6006;49.696;8.662;2023-05-07T03:07:36;3.57;;;2.20;;
11893;SDS011;6006;49.696;8.662;2023-05-07T03:10:03;2.00;;;1.90;;
11893;SDS011;6006;49.696;8.662;2023-05-07T03:12:31;2.00;;;1.90;;
11893;SDS011;6006;49.696;8.662;2023-05-07T03:14:58;2.13;;;2.03;;
11893;SDS011;6006;49.696;8.662;2023-05-07T03:17:24;1.97;;;1.87;;
11893;SDS011;6006;49.696;8.662;2023-05-07T03:19:51;2.30;;;2.10;;
11893;SDS011;6006;49.696;8.662;2023-05-07T03:22:18;2.23;;;1.90;;
11893;SDS011;6006;49.696;8.662;2023-05-07T03:24:46;2.53;;;1.90;;
11893;SDS011;6006;49.696;8.662;2023-05-07T03:27:13;2.17;;;2.03;;
11893;SDS011;6006;49.696;8.662;2023-05-07T03:29:40;3.10;;;1.93;;
11893;SDS011;6006;49.696;8.662;2023-05-07T03:32:07;2.40;;;2.20;;
11893;SDS011;6006;49.696;8.662;2023-05-07T03:34:34;2.30;;;2.10;;
11893;SDS011;6006;49.696;8.662;2023-05-07T03:37:01;3.37;;;2.20;;
11893;SDS011;6006;49.696;8.662;2023-05-07T03:39:28;2.07;;;1.87;;
11893;SDS011;6006;49.696;8.662;2023-05-07T03:41:56;2.13;;;2.00;;
11893;SDS011;6006;49.696;8.662;2023-05-07T03:44:23;2.13;;;2.03;;
11893;SDS011;6006;49.696;8.662;2023-05-07T03:46:50;3.07;;;1.80;;
11893;SDS011;6006;49.696;8.662;2023-05-07T03:49:17;2.03;;;1.93;;
11893;SDS011;6006;49.696;8.662;2023-05-07T03:51:44;3.57;;;2.23;;
11893;SDS011;6006;49.696;8.662;2023-05-07T03:54:11;2.17;;;1.97;;
11893;SDS011;6006;49.696;8.662;2023-05-07T03:56:37;2.50;;;2.30;;
11893;SDS011;6006;49.696;8.662;2023-05-07T03:59:06;1.90;;;1.80;;
11893;SDS011;6006;49.696;8.662;2023-05-07T04:01:33;1.83;;;1.73;;
11893;SDS011;6006;49.696;8.662;2023-05-07T04:04:00;3.57;;;2.43;;
11893;SDS011;6006;49.696;8.662;2023-05-07T04:06:28;3.00;;;1.97;;
11893;SDS011;6006;49.696;8.662;2023-05-07T04:08:55;2.80;;;2.03;;
11893;SDS011;6006;49.696;8.662;2023-05-07T04:11:22;2.23;;;1.87;;
11893;SDS011;6006;49.696;8.662;2023-05-07T04:13:49;2.20;;;1.80;;
11893;SDS011;6006;49.696;8.662;2023-05-07T04:16:17;3.57;;;2.20;;
11893;SDS011;6006;49.696;8.662;2023-05-07T04:18:44;2.27;;;2.07;;
11893;SDS011;6006;49.696;8.662;2023-05-07T04:21:14;1.70;;;1.60;;
11893;SDS011;6006;49.696;8.662;2023-05-07T04:23:41;2.17;;;1.70;;
11893;SDS011;6006;49.696;8.662;2023-05-07T04:26:08;2.10;;;1.80;;
11893;SDS011;6006;49.696;8.662;2023-05-07T04:28:35;2.27;;;1.80;;
11893;SDS011;6006;49.696;8.662;2023-05-07T04:31:02;2.70;;;1.60;;
11893;SDS011;6006;49.696;8.662;2023-05-07T04:33:30;2.00;;;1.90;;
11893;SDS011;6006;49.696;8.662;2023-05-07T04:35:57;2.67;;;1.87;;
11893;SDS011;6006;49.696;8.662;2023-05-07T04:38:27;1.70;;;1.60;;
11893;SDS011;6006;49.696;8.662;2023-05-07T04:40:54;1.83;;;1.43;;
11893;SDS011;6006;49.696;8.662;2023-05-07T04:43:22;1.93;;;1.50;;
11893;SDS011;6006;49.696;8.662;2023-05-07T04:45:49;2.00;;;1.80;;
11893;SDS011;6006;49.696;8.662;2023-05-07T04:48:16;1.97;;;1.53;;
11893;SDS011;6006;49.696;8.662;2023-05-07T04:50:46;2.67;;;1.83;;
11893;SDS011;6006;49.696;8.662;2023-05-07T04:53:13;1.70;;;1.60;;
11893;SDS011;6006;49.696;8.662;2023-05-07T04:55:40;2.50;;;2.03;;
11893;SDS011;6006;49.696;8.662;2023-05-07T04:58:07;1.80;;;1.70;;
11893;SDS011;6006;49.696;8.662;2023-05-07T05:00:34;1.80;;;1.70;;
11893;SDS011;6006;49.696;8.662;2023-05-07T05:03:01;2.07;;;1.60;;
11893;SDS011;6006;49.696;8.662;2023-05-07T05:05:28;1.80;;;1.57;;
11893;SDS011;6006;49.696;8.662;2023-05-07T05:07:56;2.50;;;1.73;;
11893;SDS011;6006;49.696;8.662;2023-05-07T05:10:23;1.97;;;1.87;;
11893;SDS011;6006;49.696;8.662;2023-05-07T05:12:50;1.80;;;1.70;;
11893;SDS011;6006;49.696;8.662;2023-05-07T05:15:17;2.40;;;1.50;;
11893;SDS011;6006;49.696;8.662;2023-05-07T05:17:44;1.87;;;1.77;;
11893;SDS011;6006;49.696;8.662;2023-05-07T05:20:10;2.73;;;1.67;;
11893;SDS011;6006;49.696;8.662;2023-05-07T05:22:37;1.47;;;1.37;;
11893;SDS011;6006;49.696;8.662;2023-05-07T05:25:06;2.27;;;1.50;;
11893;SDS011;6006;49.696;8.662;2023-05-07T05:27:33;2.73;;;1.50;;
11893;SDS011;6006;49.696;8.662;2023-05-07T05:30:00;2.20;;;1.57;;
11893;SDS011;6006;49.696;8.662;2023-05-07T05:32:27;2.20;;;1.50;;
11893;SDS011;6006;49.696;8.662;2023-05-07T05:34:54;1.97;;;1.40;;
11893;SDS011;6006;49.696;8.662;2023-05-07T05:37:21;1.30;;;1.30;;
11893;SDS011;6006;49.696;8.662;2023-05-07T05:39:48;1.63;;;1.30;;
11893;SDS011;6006;49.696;8.662;2023-05-07T05:42:16;1.60;;;1.50;;
11893;SDS011;6006;49.696;8.662;2023-05-07T05:44:43;1.40;;;1.30;;
11893;SDS011;6006;49.696;8.662;2023-05-07T05:47:10;1.33;;;1.23;;
11893;SDS011;6006;49.696;8.662;2023-05-07T05:49:37;1.23;;;1.20;;
11893;SDS011;6006;49.696;8.662;2023-05-07T05:52:04;1.63;;;1.23;;
11893;SDS011;6006;49.696;8.662;2023-05-07T05:54:31;1.15;;;1.08;;
11893;SDS011;6006;49.696;8.662;2023-05-07T05:56:58;1.45;;;1.40;;
11893;SDS011;6006;49.696;8.662;2023-05-07T05:59:26;1.80;;;1.15;;
11893;SDS011;6006;49.696;8.662;2023-05-07T06:01:53;1.60;;;1.20;;
11893;SDS011;6006;49.696;8.662;2023-05-07T06:04:20;1.90;;;1.50;;
11893;SDS011;6006;49.696;8.662;2023-05-07T06:06:50;1.27;;;1.23;;
11893;SDS011;6006;49.696;8.662;2023-05-07T06:09:19;1.55;;;1.00;;
11893;SDS011;6006;49.696;8.662;2023-05-07T06:11:46;1.63;;;1.40;;
11893;SDS011;6006;49.696;8.662;2023-05-07T06:14:13;1.17;;;1.08;;
11893;SDS011;6006;49.696;8.662;2023-05-07T06:16:42;1.33;;;1.20;;
11893;SDS011;6006;49.696;8.662;2023-05-07T06:19:09;1.42;;;1.33;;
11893;SDS011;6006;49.696;8.662;2023-05-07T06:21:38;1.17;;;1.08;;
11893;SDS011;6006;49.696;8.662;2023-05-07T06:24:06;1.38;;;1.27;;
11893;SDS011;6006;49.696;8.662;2023-05-07T06:26:33;1.33;;;1.23;;
11893;SDS011;6006;49.696;8.662;2023-05-07T06:29:00;1.20;;;1.10;;
11893;SDS011;6006;49.696;8.662;2023-05-07T06:31:29;1.67;;;1.23;;
11893;SDS011;6006;49.696;8.662;2023-05-07T06:33:58;1.10;;;1.10;;
11893;SDS011;6006;49.696;8.662;2023-05-07T06:36:27;1.20;;;1.10;;
11893;SDS011;6006;49.696;8.662;2023-05-07T06:38:54;1.40;;;1.30;;
11893;SDS011;6006;49.696;8.662;2023-05-07T06:41:20;1.58;;;1.45;;
11893;SDS011;6006;49.696;8.662;2023-05-07T06:43:47;2.17;;;1.35;;
11893;SDS011;6006;49.696;8.662;2023-05-07T06:46:15;1.00;;;1.00;;
11893;SDS011;6006;49.696;8.662;2023-05-07T06:48:42;1.02;;;1.02;;
11893;SDS011;6006;49.696;8.662;2023-05-07T06:51:10;2.20;;;1.05;;
11893;SDS011;6006;49.696;8.662;2023-05-07T06:53:37;1.30;;;1.02;;
11893;SDS011;6006;49.696;8.662;2023-05-07T06:56:04;1.67;;;1.10;;
11893;SDS011;6006;49.696;8.662;2023-05-07T06:58:31;1.55;;;1.00;;
11893;SDS011;6006;49.696;8.662;2023-05-07T07:00:58;1.63;;;1.08;;
11893;SDS011;6006;49.696;8.662;2023-05-07T07:03:25;1.33;;;1.00;;
11893;SDS011;6006;49.696;8.662;2023-05-07T07:05:52;4.93;;;1.30;;
11893;SDS011;6006;49.696;8.662;2023-05-07T07:08:21;0.88;;;0.88;;
11893;SDS011;6006;49.696;8.662;2023-05-07T07:10:48;0.98;;;0.98;;
11893;SDS011;6006;49.696;8.662;2023-05-07T07:13:15;1.17;;;1.05;;
11893;SDS011;6006;49.696;8.662;2023-05-07T07:15:42;1.25;;;1.20;;
11893;SDS011;6006;49.696;8.662;2023-05-07T07:18:10;1.30;;;1.20;;
11893;SDS011;6006;49.696;8.662;2023-05-07T07:20:36;1.00;;;1.00;;
11893;SDS011;6006;49.696;8.662;2023-05-07T07:23:03;1.23;;;1.13;;
11893;SDS011;6006;49.696;8.662;2023-05-07T07:25:31;1.50;;;1.40;;
11893;SDS011;6006;49.696;8.662;2023-05-07T07:27:58;1.38;;;1.20;;
11893;SDS011;6006;49.696;8.662;2023-05-07T07:30:25;1.40;;;1.30;;
11893;SDS011;6006;49.696;8.662;2023-05-07T07:32:52;1.63;;;1.52;;
11893;SDS011;6006;49.696;8.662;2023-05-07T07:35:19;1.95;;;1.27;;
11893;SDS011;6006;49.696;8.662;2023-05-07T07:37:46;1.25;;;1.15;;
11893;SDS011;6006;49.696;8.662;2023-05-07T07:40:14;8.05;;;2.15;;
11893;SDS011;6006;49.696;8.662;2023-05-07T07:42:43;1.20;;;1.20;;
11893;SDS011;6006;49.696;8.662;2023-05-07T07:45:10;1.42;;;1.20;;
11893;SDS011;6006;49.696;8.662;2023-05-07T07:47:37;1.05;;;1.05;;
11893;SDS011;6006;49.696;8.662;2023-05-07T07:50:04;3.20;;;1.30;;
11893;SDS011;6006;49.696;8.662;2023-05-07T07:52:32;1.67;;;1.35;;
11893;SDS011;6006;49.696;8.662;2023-05-07T07:54:59;1.58;;;1.48;;
11893;SDS011;6006;49.696;8.662;2023-05-07T07:57:26;1.48;;;1.45;;
11893;SDS011;6006;49.696;8.662;2023-05-07T07:59:55;1.35;;;1.30;;
11893;SDS011;6006;49.696;8.662;2023-05-07T08:02:21;1.40;;;1.30;;
11893;SDS011;6006;49.696;8.662;2023-05-07T08:04:48;1.30;;;1.20;;
11893;SDS011;6006;49.696;8.662;2023-05-07T08:07:15;1.40;;;1.30;;
11893;SDS011;6006;49.696;8.662;2023-05-07T08:09:43;1.73;;;1.65;;
11893;SDS011;6006;49.696;8.662;2023-05-07T08:12:10;1.40;;;1.30;;
11893;SDS011;6006;49.696;8.662;2023-05-07T08:14:37;1.63;;;1.35;;
11893;SDS011;6006;49.696;8.662;2023-05-07T08:17:05;1.48;;;1.38;;
11893;SDS011;6006;49.696;8.662;2023-05-07T08:19:34;1.70;;;1.60;;
11893;SDS011;6006;49.696;8.662;2023-05-07T08:22:02;2.13;;;1.60;;
11893;SDS011;6006;49.696;8.662;2023-05-07T08:24:29;1.40;;;1.30;;
11893;SDS011;6006;49.696;8.662;2023-05-07T08:26:55;1.45;;;1.35;;
11893;SDS011;6006;49.696;8.662;2023-05-07T08:29:22;5.10;;;1.60;;
11893;SDS011;6006;49.696;8.662;2023-05-07T08:31:49;2.38;;;1.63;;
11893;SDS011;6006;49.696;8.662;2023-05-07T08:34:18;2.25;;;1.63;;
11893;SDS011;6006;49.696;8.662;2023-05-07T08:36:45;1.40;;;1.30;;
11893;SDS011;6006;49.696;8.662;2023-05-07T08:39:13;1.45;;;1.35;;
11893;SDS011;6006;49.696;8.662;2023-05-07T08:41:41;2.83;;;1.50;;
11893;SDS011;6006;49.696;8.662;2023-05-07T08:44:11;1.45;;;1.35;;
11893;SDS011;6006;49.696;8.662;2023-05-07T08:46:39;1.60;;;1.50;;
11893;SDS011;6006;49.696;8.662;2023-05-07T08:49:08;2.67;;;1.65;;
11893;SDS011;6006;49.696;8.662;2023-05-07T08:51:36;1.70;;;1.60;;
11893;SDS011;6006;49.696;8.662;2023-05-07T08:54:03;1.83;;;1.52;;
11893;SDS011;6006;49.696;8.662;2023-05-07T08:56:32;4.55;;;1.98;;
11893;SDS011;6006;49.696;8.662;2023-05-07T08:58:59;2.00;;;1.67;;
11893;SDS011;6006;49.696;8.662;2023-05-07T09:01:26;1.70;;;1.48;;
11893;SDS011;6006;49.696;8.662;2023-05-07T09:03:53;1.60;;;1.50;;
11893;SDS011;6006;49.696;8.662;2023-05-07T09:06:20;1.52;;;1.42;;
11893;SDS011;6006;49.696;8.662;2023-05-07T09:08:51;1.60;;;1.50;;
11893;SDS011;6006;49.696;8.662;2023-05-07T09:11:20;2.58;;;1.70;;
11893;SDS011;6006;49.696;8.662;2023-05-07T09:13:47;1.27;;;1.27;;
11893;SDS011;6006;49.696;8.662;2023-05-07T09:16:15;1.55;;;1.42;;
11893;SDS011;6006;49.696;8.662;2023-05-07T09:18:42;1.33;;;1.30;;
11893;SDS011;6006;49.696;8.662;2023-05-07T09:21:10;1.77;;;1.67;;
11893;SDS011;6006;49.696;8.662;2023-05-07T09:23:37;1.60;;;1.50;;
11893;SDS011;6006;49.696;8.662;2023-05-07T09:26:06;1.38;;;1.27;;
11893;SDS011;6006;49.696;8.662;2023-05-07T09:28:37;1.60;;;1.50;;
11893;SDS011;6006;49.696;8.662;2023-05-07T09:31:05;2.13;;;1.40;;
11893;SDS011;6006;49.696;8.662;2023-05-07T09:33:33;1.58;;;1.48;;
11893;SDS011;6006;49.696;8.662;2023-05-07T09:36:01;1.48;;;1.30;;
11893;SDS011;6006;49.696;8.662;2023-05-07T09:38:30;1.77;;;1.50;;
11893;SDS011;6006;49.696;8.662;2023-05-07T09:41:01;1.77;;;1.25;;
11893;SDS011;6006;49.696;8.662;2023-05-07T09:43:32;1.33;;;1.23;;
11893;SDS011;6006;49.696;8.662;2023-05-07T09:46:02;1.63;;;1.40;;
11893;SDS011;6006;49.696;8.662;2023-05-07T09:48:32;1.60;;;1.50;;
11893;SDS011;6006;49.696;8.662;2023-05-07T09:51:03;1.50;;;1.40;;
11893;SDS011;6006;49.696;8.662;2023-05-07T09:53:34;1.50;;;1.40;;
11893;SDS011;6006;49.696;8.662;2023-05-07T09:56:02;2.25;;;1.70;;
11893;SDS011;6006;49.696;8.662;2023-05-07T09:58:30;2.28;;;1.40;;
11893;SDS011;6006;49.696;8.662;2023-05-07T10:01:02;1.33;;;1.30;;
11893;SDS011;6006;49.696;8.662;2023-05-07T10:03:30;1.50;;;1.40;;
11893;SDS011;6006;49.696;8.662;2023-05-07T10:05:59;1.80;;;1.40;;
11893;SDS011;6006;49.696;8.662;2023-05-07T10:08:27;2.03;;;1.40;;
11893;SDS011;6006;49.696;8.662;2023-05-07T10:10:56;1.58;;;1.40;;
11893;SDS011;6006;49.696;8.662;2023-05-07T10:13:23;1.45;;;1.35;;
11893;SDS011;6006;49.696;8.662;2023-05-07T10:15:52;1.38;;;1.27;;
11893;SDS011;6006;49.696;8.662;2023-05-07T10:18:19;2.70;;;1.38;;
11893;SDS011;6006;49.696;8.662;2023-05-07T10:20:48;1.95;;;1.23;;
11893;SDS011;6006;49.696;8.662;2023-05-07T10:23:19;2.67;;;1.70;;
11893;SDS011;6006;49.696;8.662;2023-05-07T10:25:49;1.60;;;1.50;;
11893;SDS011;6006;49.696;8.662;2023-05-07T10:28:16;1.40;;;1.30;;
11893;SDS011;6006;49.696;8.662;2023-05-07T10:30:48;1.95;;;1.77;;
11893;SDS011;6006;49.696;8.662;2023-05-07T10:33:27;1.88;;;1.77;;
11893;SDS011;6006;49.696;8.662;2023-05-07T10:35:57;1.63;;;1.52;;
11893;SDS011;6006;49.696;8.662;2023-05-07T10:38:26;1.50;;;1.40;;
11893;SDS011;6006;49.696;8.662;2023-05-07T10:40:54;2.78;;;1.52;;
11893;SDS011;6006;49.696;8.662;2023-05-07T10:43:20;1.70;;;1.60;;
11893;SDS011;6006;49.696;8.662;2023-05-07T10:51:36;1.77;;;1.40;;
11893;SDS011;6006;49.696;8.662;2023-05-07T10:54:19;1.30;;;1.30;;
11893;SDS011;6006;49.696;8.662;2023-05-07T10:56:52;2.00;;;1.90;;
11893;SDS011;6006;49.696;8.662;2023-05-07T10:59:33;1.73;;;1.63;;
11893;SDS011;6006;49.696;8.662;2023-05-07T11:02:08;1.98;;;1.77;;
11893;SDS011;6006;49.696;8.662;2023-05-07T11:04:36;2.08;;;1.98;;
11893;SDS011;6006;49.696;8.662;2023-05-07T11:09:58;1.98;;;1.88;;
11893;SDS011;6006;49.696;8.662;2023-05-07T11:15:35;2.63;;;1.63;;
11893;SDS011;6006;49.696;8.662;2023-05-07T11:18:09;1.90;;;1.80;;
11893;SDS011;6006;49.696;8.662;2023-05-07T11:20:50;2.05;;;1.95;;
11893;SDS011;6006;49.696;8.662;2023-05-07T11:26:43;2.42;;;2.22;;
11893;SDS011;6006;49.696;8.662;2023-05-07T11:29:12;2.55;;;2.00;;
11893;SDS011;6006;49.696;8.662;2023-05-07T11:31:39;1.95;;;1.85;;
11893;SDS011;6006;49.696;8.662;2023-05-07T11:34:08;2.22;;;2.03;;
11893;SDS011;6006;49.696;8.662;2023-05-07T11:36:35;2.08;;;1.88;;
11893;SDS011;6006;49.696;8.662;2023-05-07T11:39:22;1.88;;;1.50;;
11893;SDS011;6006;49.696;8.662;2023-05-07T11:41:53;2.10;;;2.00;;
11893;SDS011;6006;49.696;8.662;2023-05-07T11:44:20;2.40;;;1.95;;
11893;SDS011;6006;49.696;8.662;2023-05-07T11:46:46;2.28;;;2.08;;
11893;SDS011;6006;49.696;8.662;2023-05-07T11:49:15;2.08;;;1.88;;
11893;SDS011;6006;49.696;8.662;2023-05-07T11:51:43;2.40;;;2.30;;
11893;SDS011;6006;49.696;8.662;2023-05-07T11:54:11;2.58;;;2.38;;
11893;SDS011;6006;49.696;8.662;2023-05-07T11:56:42;2.30;;;1.80;;
11893;SDS011;6006;49.696;8.662;2023-05-07T11:59:09;1.70;;;1.60;;
11893;SDS011;6006;49.696;8.662;2023-05-07T12:01:36;2.65;;;1.45;;
11893;SDS011;6006;49.696;8.662;2023-05-07T12:04:03;1.95;;;1.60;;
11893;SDS011;6006;49.696;8.662;2023-05-07T12:06:35;1.80;;;1.70;;
11893;SDS011;6006;49.696;8.662;2023-05-07T12:09:03;1.65;;;1.40;;
11893;SDS011;6006;49.696;8.662;2023-05-07T12:11:32;1.60;;;1.50;;
11893;SDS011;6006;49.696;8.662;2023-05-07T12:13:59;1.65;;;1.55;;
11893;SDS011;6006;49.696;8.662;2023-05-07T12:16:25;2.53;;;1.48;;
11893;SDS011;6006;49.696;8.662;2023-05-07T12:18:53;1.58;;;1.52;;
11893;SDS011;6006;49.696;8.662;2023-05-07T12:21:20;2.40;;;1.73;;
11893;SDS011;6006;49.696;8.662;2023-05-07T12:23:49;1.80;;;1.70;;
11893;SDS011;6006;49.696;8.662;2023-05-07T12:26:16;1.92;;;1.70;;
11893;SDS011;6006;49.696;8.662;2023-05-07T12:28:42;3.17;;;1.50;;
11893;SDS011;6006;49.696;8.662;2023-05-07T12:31:09;1.67;;;1.58;;
11893;SDS011;6006;49.696;8.662;2023-05-07T12:33:36;1.55;;;1.45;;
11893;SDS011;6006;49.696;8.662;2023-05-07T12:36:04;1.80;;;1.70;;
11893;SDS011;6006;49.696;8.662;2023-05-07T12:38:34;1.65;;;1.30;;
11893;SDS011;6006;49.696;8.662;2023-05-07T12:41:03;1.40;;;1.40;;
11893;SDS011;6006;49.696;8.662;2023-05-07T12:43:32;1.40;;;1.30;;
11893;SDS011;6006;49.696;8.662;2023-05-07T12:45:59;1.65;;;1.55;;
11893;SDS011;6006;49.696;8.662;2023-05-07T12:48:27;1.60;;;1.50;;
11893;SDS011;6006;49.696;8.662;2023-05-07T12:50:55;1.83;;;1.67;;
11893;SDS011;6006;49.696;8.662;2023-05-07T12:53:23;2.40;;;1.65;;
11893;SDS011;6006;49.696;8.662;2023-05-07T12:55:51;1.63;;;1.52;;
11893;SDS011;6006;49.696;8.662;2023-05-07T12:58:20;1.35;;;1.25;;
11893;SDS011;6006;49.696;8.662;2023-05-07T13:00:51;2.58;;;1.50;;
11893;SDS011;6006;49.696;8.662;2023-05-07T13:03:22;1.63;;;1.52;;
11893;SDS011;6006;49.696;8.662;2023-05-07T13:05:50;1.80;;;1.70;;
11893;SDS011;6006;49.696;8.662;2023-05-07T13:08:27;1.75;;;1.65;;
11893;SDS011;6006;49.696;8.662;2023-05-07T13:10:55;1.50;;;1.40;;
11893;SDS011;6006;49.696;8.662;2023-05-07T13:13:24;1.80;;;1.70;;
11893;SDS011;6006;49.696;8.662;2023-05-07T13:15:51;1.80;;;1.70;;
11893;SDS011;6006;49.696;8.662;2023-05-07T13:18:18;1.90;;;1.80;;
11893;SDS011;6006;49.696;8.662;2023-05-07T13:20:45;2.03;;;1.92;;
11893;SDS011;6006;49.696;8.662;2023-05-07T13:23:12;1.90;;;1.80;;
11893;SDS011;6006;49.696;8.662;2023-05-07T13:25:39;2.88;;;1.95;;
11893;SDS011;6006;49.696;8.662;2023-05-07T13:28:06;3.58;;;2.08;;
11893;SDS011;6006;49.696;8.662;2023-05-07T13:30:34;2.17;;;2.08;;
11893;SDS011;6006;49.696;8.662;2023-05-07T13:33:01;1.90;;;1.80;;
11893;SDS011;6006;49.696;8.662;2023-05-07T13:35:28;2.03;;;1.90;;
11893;SDS011;6006;49.696;8.662;2023-05-07T13:37:55;2.10;;;2.00;;
11893;SDS011;6006;49.696;8.662;2023-05-07T13:40:22;3.17;;;2.08;;
11893;SDS011;6006;49.696;8.662;2023-05-07T13:42:49;3.20;;;2.63;;
11893;SDS011;6006;49.696;8.662;2023-05-07T13:45:16;2.50;;;2.30;;
11893;SDS011;6006;49.696;8.662;2023-05-07T13:47:45;2.58;;;2.45;;
11893;SDS011;6006;49.696;8.662;2023-05-07T13:50:14;2.53;;;2.38;;
11893;SDS011;6006;49.696;8.662;2023-05-07T13:52:41;2.75;;;2.55;;
11893;SDS011;6006;49.696;8.662;2023-05-07T13:55:11;2.78;;;2.10;;
11893;SDS011;6006;49.696;8.662;2023-05-07T13:57:37;2.58;;;2.38;;
11893;SDS011;6006;49.696;8.662;2023-05-07T14:00:05;3.67;;;2.65;;
11893;SDS011;6006;49.696;8.662;2023-05-07T14:02:33;3.42;;;2.85;;
11893;SDS011;6006;49.696;8.662;2023-05-07T14:05:01;2.60;;;2.40;;
11893;SDS011;6006;49.696;8.662;2023-05-07T14:07:28;2.85;;;2.65;;
11893;SDS011;6006;49.696;8.662;2023-05-07T14:09:56;3.75;;;2.50;;
11893;SDS011;6006;49.696;8.662;2023-05-07T14:12:23;2.80;;;2.60;;
11893;SDS011;6006;49.696;8.662;2023-05-07T14:14:50;2.78;;;2.58;;
11893;SDS011;6006;49.696;8.662;2023-05-07T14:17:17;2.60;;;2.40;;
11893;SDS011;6006;49.696;8.662;2023-05-07T14:19:45;2.80;;;2.63;;
11893;SDS011;6006;49.696;8.662;2023-05-07T14:22:14;3.03;;;2.75;;
11893;SDS011;6006;49.696;8.662;2023-05-07T14:24:40;2.45;;;2.30;;
11893;SDS011;6006;49.696;8.662;2023-05-07T14:27:07;3.35;;;2.63;;
11893;SDS011;6006;49.696;8.662;2023-05-07T14:29:34;2.20;;;2.10;;
11893;SDS011;6006;49.696;8.662;2023-05-07T14:32:01;2.83;;;2.63;;
11893;SDS011;6006;49.696;8.662;2023-05-07T14:34:28;2.80;;;2.20;;
11893;SDS011;6006;49.696;8.662;2023-05-07T14:36:55;2.92;;;2.20;;
11893;SDS011;6006;49.696;8.662;2023-05-07T14:39:23;2.45;;;2.25;;
11893;SDS011;6006;49.696;8.662;2023-05-07T14:41:50;2.72;;;2.35;;
11893;SDS011;6006;49.696;8.662;2023-05-07T14:44:19;3.13;;;2.50;;
11893;SDS011;6006;49.696;8.662;2023-05-07T14:46:46;2.33;;;2.05;;
11893;SDS011;6006;49.696;8.662;2023-05-07T14:49:13;2.45;;;2.35;;
11893;SDS011;6006;49.696;8.662;2023-05-07T14:51:42;2.85;;;2.65;;
11893;SDS011;6006;49.696;8.662;2023-05-07T14:54:09;2.88;;;2.05;;
11893;SDS011;6006;49.696;8.662;2023-05-07T14:56:37;4.20;;;2.38;;
11893;SDS011;6006;49.696;8.662;2023-05-07T14:59:04;2.65;;;2.45;;
11893;SDS011;6006;49.696;8.662;2023-05-07T15:01:31;2.90;;;2.10;;
11893;SDS011;6006;49.696;8.662;2023-05-07T15:03:59;2.50;;;2.40;;
11893;SDS011;6006;49.696;8.662;2023-05-07T15:06:26;2.75;;;2.53;;
11893;SDS011;6006;49.696;8.662;2023-05-07T15:08:54;2.55;;;2.30;;
11893;SDS011;6006;49.696;8.662;2023-05-07T15:11:21;2.40;;;2.30;;
11893;SDS011;6006;49.696;8.662;2023-05-07T15:13:49;2.90;;;2.70;;
11893;SDS011;6006;49.696;8.662;2023-05-07T15:16:16;3.88;;;2.65;;
11893;SDS011;6006;49.696;8.662;2023-05-07T15:18:42;2.40;;;2.15;;